Time;durP1;ratioP1;P1;durP2;ratioP2;P2;SDS_P1;SDS_P2;PMS_P1;PMS_P2;Temp;Humidity;BMP_temperature;BMP_pressure;BME280_temperature;BME280_humidity;BME280_pressure;Samples;Min_cycle;Max_cycle;Signal;HPM_P1;HPM_P2
2023/03/16 00:00:12;;;;;;;14.40;11.60;;;;;;;10.54;100.00;1050.53;5051256;28;20186;-60
2023/03/16 00:02:40;;;;;;;19.67;11.87;;;;;;;10.66;100.00;1051.31;5051546;28;20202;-59
2023/03/16 00:05:07;;;;;;;12.43;11.40;;;;;;;10.37;100.00;6485.75;5051229;28;20196;-59
2023/03/16 00:07:35;;;;;;;15.27;10.87;;;;;;;10.32;100.00;5525.03;5051157;28;20213;-61
2023/03/16 00:10:02;;;;;;;18.63;11.30;;;;;;;10.43;100.00;5526.59;5051606;28;20186;-59
2023/03/16 00:12:33;;;;;;;13.10;11.93;;;;;;;10.49;100.00;5527.44;5051068;28;20200;-60
2023/03/16 00:15:03;;;;;;;12.10;11.07;;;;;;;10.35;100.00;5845.34;5051453;28;20186;-60
2023/03/16 00:17:30;;;;;;;13.33;12.00;;;;;;;10.23;100.00;4884.03;5050994;27;20315;-59
2023/03/16 00:19:57;;;;;;;13.43;12.03;;;;;;;10.16;100.00;2325.78;5050959;28;20193;-60
2023/03/16 00:22:26;;;;;;;17.77;11.83;;;;;;;10.42;100.00;-547.63;5050950;28;20182;-59
2023/03/16 00:24:53;;;;;;;13.33;11.93;;;;;;;10.29;100.00;1368.28;5050999;28;20196;-59
2023/03/16 00:27:22;;;;;;;17.57;12.47;;;;;;;10.08;100.00;2005.69;5051046;28;20232;-60
2023/03/16 00:29:54;;;;;;;12.90;11.60;;;;;;;10.33;100.00;729.63;5051249;28;20186;-59
2023/03/16 00:32:25;;;;;;;12.77;11.60;;;;;;;10.39;100.00;2008.22;5051112;28;20554;-62
2023/03/16 00:34:52;;;;;;;14.97;12.10;;;;;;;10.39;100.00;3926.56;5051333;28;20212;-61
2023/03/16 00:37:22;;;;;;;21.93;12.07;;;;;;;10.12;100.00;4243.13;5050713;28;20185;-59
2023/03/16 00:39:50;;;;;;;13.70;12.23;;;;;;;10.38;100.00;1049.47;5051036;28;20190;-60
2023/03/16 00:42:17;;;;;;;19.93;12.00;;;;;;;10.28;100.00;2966.16;5051156;28;20182;-61
2023/03/16 00:44:45;;;;;;;24.10;13.10;;;;;;;10.21;100.00;5203.59;5050951;28;20194;-59
2023/03/16 00:47:14;;;;;;;13.93;12.53;;;;;;;10.33;100.00;6485.03;5050952;28;20667;-60
2023/03/16 00:49:44;;;;;;;14.33;11.60;;;;;;;10.25;100.00;7443.88;5050623;28;20572;-60
2023/03/16 00:52:13;;;;;;;16.97;12.23;;;;;;;10.32;100.00;7765.22;5050534;28;20186;-59
2023/03/16 00:54:42;;;;;;;18.67;12.10;;;;;;;10.34;100.00;7125.41;5050518;28;20181;-60
2023/03/16 00:57:11;;;;;;;14.07;12.33;;;;;;;10.44;100.00;6486.84;5050592;28;20181;-59
2023/03/16 00:59:38;;;;;;;14.60;12.67;;;;;;;10.31;100.00;7124.91;5051007;28;20552;-61
2023/03/16 01:02:06;;;;;;;14.13;11.97;;;;;;;10.53;100.00;9691.06;5051162;28;20548;-59
2023/03/16 01:04:34;;;;;;;16.73;12.30;;;;;;;10.34;100.00;13533.44;5050733;28;20208;-59
2023/03/16 01:07:03;;;;;;;13.40;12.10;;;;;;;10.38;100.00;16422.59;5050281;28;20209;-59
2023/03/16 01:09:30;;;;;;;14.73;12.47;;;;;;;10.57;100.00;18034.31;5049230;28;20189;-59
2023/03/16 01:11:57;;;;;;;14.97;12.07;;;;;;;10.49;100.00;17389.47;5050746;28;20253;-61
2023/03/16 01:14:24;;;;;;;16.07;12.20;;;;;;;10.51;100.00;15142.50;5050156;28;20595;-60
2023/03/16 01:16:51;;;;;;;12.80;11.67;;;;;;;10.56;100.00;12897.84;5050361;27;20635;-59
2023/03/16 01:19:18;;;;;;;13.43;12.37;;;;;;;10.51;100.00;13217.28;5050048;28;20190;-60
2023/03/16 01:21:45;;;;;;;14.00;12.53;;;;;;;10.49;100.00;12896.00;5050310;28;20640;-59
2023/03/16 01:24:14;;;;;;;16.60;13.63;;;;;;;10.34;100.00;11609.81;5049919;28;20197;-60
2023/03/16 01:26:40;;;;;;;13.30;12.07;;;;;;;10.37;100.00;10649.03;5049932;28;20202;-60
2023/03/16 01:29:07;;;;;;;18.50;13.17;;;;;;;10.46;100.00;10330.56;5049865;28;20221;-59
2023/03/16 01:31:34;;;;;;;17.97;14.00;;;;;;;10.46;100.00;10971.59;5049868;28;20189;-60
2023/03/16 01:34:02;;;;;;;15.37;13.60;;;;;;;10.52;100.00;10972.84;5049780;28;20188;-59
2023/03/16 01:36:31;;;;;;;21.00;13.40;;;;;;;10.50;100.00;12254.97;5049821;28;20189;-59
2023/03/16 01:38:58;;;;;;;15.47;12.53;;;;;;;10.45;100.00;14498.91;5049697;28;20182;-59
2023/03/16 01:41:27;;;;;;;13.87;12.67;;;;;;;10.60;100.00;14182.31;5049624;28;20197;-59
2023/03/16 01:43:57;;;;;;;16.07;12.47;;;;;;;10.59;100.00;14502.78;5049723;28;20193;-60
2023/03/16 01:46:26;;;;;;;14.37;12.83;;;;;;;10.58;100.00;14823.59;5049652;28;20205;-59
2023/03/16 01:49:00;;;;;;;15.43;13.83;;;;;;;10.62;100.00;14503.81;5049846;28;20308;-59
2023/03/16 01:51:31;;;;;;;14.53;13.00;;;;;;;10.65;100.00;14504.53;5049580;28;20670;-60
2023/03/16 01:54:01;;;;;;;14.07;12.70;;;;;;;10.68;100.00;15789.59;5049759;28;20186;-60
2023/03/16 01:56:36;;;;;;;13.67;12.37;;;;;;;10.72;100.00;17718.34;5049840;28;20510;-60
2023/03/16 01:59:09;;;;;;;18.83;12.97;;;;;;;10.65;100.00;19322.75;5049513;28;20205;-60
2023/03/16 02:01:36;;;;;;;13.73;12.47;;;;;;;10.61;100.00;18999.88;5049422;28;20192;-60
2023/03/16 02:04:14;;;;;;;13.77;12.37;;;;;;;10.62;100.00;18678.69;5049914;28;20201;-59
2023/03/16 02:06:42;;;;;;;17.83;12.13;;;;;;;10.67;100.00;18359.28;5050103;28;20280;-61
2023/03/16 02:09:09;;;;;;;12.73;11.83;;;;;;;10.62;100.00;19964.38;5049257;28;20209;-61
2023/03/16 02:11:38;;;;;;;17.17;12.70;;;;;;;10.63;100.00;18679.25;5049344;28;20285;-60
2023/03/16 02:14:09;;;;;;;14.67;13.07;;;;;;;10.56;100.00;19319.28;5049657;28;20196;-60
2023/03/16 02:16:36;;;;;;;13.27;11.97;;;;;;;10.31;100.00;16741.19;5049937;27;20223;-59
2023/03/16 02:19:07;;;;;;;13.40;12.17;;;;;;;10.53;100.00;15785.09;5049804;28;20806;-59
2023/03/16 02:21:45;;;;;;;12.87;11.53;;;;;;;10.59;100.00;15786.97;5049758;28;20193;-59
2023/03/16 02:24:12;;;;;;;13.10;11.93;;;;;;;10.61;100.00;16750.94;5049277;28;20253;-61
2023/03/16 02:26:46;;;;;;;13.77;12.67;;;;;;;10.57;100.00;16749.63;5048952;28;20185;-60
2023/03/16 02:29:38;;;;;;;14.30;12.67;;;;;;;10.49;100.00;17389.47;5048648;28;20220;-59
2023/03/16 02:32:06;;;;;;;14.10;12.90;;;;;;;10.55;100.00;16427.88;5032673;28;20205;-59
2023/03/16 02:34:35;;;;;;;15.60;12.87;;;;;;;10.31;100.00;14174.22;5049252;28;20622;-60
2023/03/16 02:37:03;;;;;;;13.07;11.87;;;;;;;10.42;100.00;11611.75;5049219;28;20571;-60
2023/03/16 02:39:30;;;;;;;14.97;13.60;;;;;;;10.40;100.00;11611.25;5049194;28;20650;-60
2023/03/16 02:41:57;;;;;;;15.50;13.60;;;;;;;10.22;100.00;11286.34;5048876;28;20192;-59
2023/03/16 02:44:32;;;;;;;16.73;13.30;;;;;;;10.38;100.00;10649.16;5049037;28;20197;-60
2023/03/16 02:47:03;;;;;;;17.53;13.17;;;;;;;10.41;100.00;10329.47;5048861;28;20234;-61
2023/03/16 02:49:36;;;;;;;19.30;14.00;;;;;;;10.35;100.00;10007.66;5048704;28;20257;-60
2023/03/16 02:52:03;;;;;;;19.83;14.40;;;;;;;10.36;100.00;9046.94;5049096;28;20192;-60
2023/03/16 02:54:30;;;;;;;15.90;14.13;;;;;;;10.31;100.00;9045.94;5048653;28;20196;-60
2023/03/16 02:56:57;;;;;;;15.20;13.73;;;;;;;10.42;100.00;9688.84;5048928;28;20185;-60
2023/03/16 02:59:23;;;;;;;15.73;14.47;;;;;;;10.38;100.00;9688.00;5048795;28;20267;-59
2023/03/16 03:01:51;;;;;;;17.23;15.27;;;;;;;10.47;100.00;10651.19;5048578;28;20185;-59
2023/03/16 03:04:19;;;;;;;16.03;14.40;;;;;;;10.38;100.00;10969.72;5049049;28;20201;-60
2023/03/16 03:06:47;;;;;;;16.63;14.93;;;;;;;10.32;100.00;10327.38;5048654;28;20192;-59
2023/03/16 03:09:14;;;;;;;17.53;13.03;;;;;;;10.24;100.00;7443.69;5048951;28;20240;-58
2023/03/16 03:11:41;;;;;;;14.07;12.77;;;;;;;10.09;100.00;6481.41;5048535;28;20249;-60
2023/03/16 03:14:08;;;;;;;15.43;12.33;;;;;;;10.09;100.00;5841.56;5048758;28;20185;-59
2023/03/16 03:16:35;;;;;;;12.20;11.10;;;;;;;10.02;100.00;6160.44;5040460;28;20233;-60
2023/03/16 03:19:02;;;;;;;13.13;12.00;;;;;;;10.01;100.00;4881.13;5049172;28;20553;-60
2023/03/16 03:21:29;;;;;;;13.17;11.97;;;;;;;9.99;100.00;3921.94;5048761;28;20197;-60
2023/03/16 03:23:57;;;;;;;14.27;13.00;;;;;;;9.95;100.00;4241.06;5048203;28;20194;-60
2023/03/16 03:26:24;;;;;;;15.17;13.67;;;;;;;10.20;100.00;4563.78;5048150;28;20190;-59
2023/03/16 03:28:51;;;;;;;14.43;13.17;;;;;;;10.28;100.00;5844.38;5048715;28;20214;-60
2023/03/16 03:31:20;;;;;;;13.20;11.93;;;;;;;10.39;100.00;7126.25;5048359;28;20201;-60
2023/03/16 03:33:47;;;;;;;14.47;13.07;;;;;;;10.42;100.00;9368.47;5051684;28;20181;-62
2023/03/16 03:36:15;;;;;;;13.50;12.37;;;;;;;10.51;100.00;11293.31;5051624;28;20190;-60
2023/03/16 03:38:42;;;;;;;12.87;11.87;;;;;;;10.59;100.00;12898.63;5051646;28;20181;-61
2023/03/16 03:41:10;;;;;;;13.10;11.77;;;;;;;10.65;100.00;14504.53;5051734;28;20194;-59
2023/03/16 03:43:37;;;;;;;13.07;11.97;;;;;;;10.58;100.00;17070.97;5051910;28;20560;-59
2023/03/16 03:46:04;;;;;;;13.20;12.00;;;;;;;10.69;100.00;18360.00;5051397;28;20193;-60
2023/03/16 03:48:31;;;;;;;14.73;12.30;;;;;;;10.76;100.00;18683.72;5051663;28;20671;-59
2023/03/16 03:50:58;;;;;;;16.17;12.10;;;;;;;10.81;100.00;19650.00;5052125;28;20269;-59
2023/03/16 03:53:25;;;;;;;14.43;12.93;;;;;;;10.82;100.00;19972.16;5051420;28;20189;-59
2023/03/16 03:55:52;;;;;;;13.77;12.47;;;;;;;10.83;100.00;22546.28;5051563;28;20190;-60
2023/03/16 03:58:20;;;;;;;12.57;11.77;;;;;;;10.79;100.00;24475.91;5051575;28;20190;-60
2023/03/16 04:00:47;;;;;;;13.00;12.00;;;;;;;10.77;100.00;25763.25;5051402;28;20192;-60
2023/03/16 04:03:15;;;;;;;12.50;11.43;;;;;;;10.80;100.00;26731.47;5051285;28;20202;-61
2023/03/16 04:05:41;;;;;;;13.07;12.03;;;;;;;10.78;100.00;26085.84;5033642;28;20186;-59
2023/03/16 04:08:08;;;;;;;12.70;11.70;;;;;;;10.82;100.00;25443.47;5051068;28;20209;-59
2023/03/16 04:10:35;;;;;;;12.73;11.90;;;;;;;10.66;100.00;24148.09;5051389;28;20189;-60
2023/03/16 04:13:02;;;;;;;13.03;12.07;;;;;;;10.73;100.00;21898.38;5051348;28;20196;-59
2023/03/16 04:15:31;;;;;;;13.13;12.23;;;;;;;10.72;100.00;19646.66;5051200;28;20262;-60
2023/03/16 04:17:58;;;;;;;13.07;11.77;;;;;;;10.71;100.00;17396.53;5050952;28;20654;-60
2023/03/16 04:20:25;;;;;;;13.27;12.27;;;;;;;10.60;100.00;15466.06;5051278;28;20193;-60
2023/03/16 04:22:57;;;;;;;13.30;12.33;;;;;;;10.57;100.00;12897.97;5051195;28;20528;-60
2023/03/16 04:25:25;;;;;;;15.30;13.80;;;;;;;10.27;100.00;10326.38;5050927;28;20193;-60
2023/03/16 04:27:52;;;;;;;14.97;13.57;;;;;;;10.48;100.00;7768.16;5050637;28;20181;-59
2023/03/16 04:30:19;;;;;;;15.40;14.00;;;;;;;10.45;100.00;5846.88;5050645;28;20186;-60
2023/03/16 04:32:48;;;;;;;15.23;13.80;;;;;;;10.30;100.00;4245.31;5050768;28;20197;-60
2023/03/16 04:35:16;;;;;;;18.73;15.97;;;;;;;10.19;100.00;728.72;5051066;28;20567;-60
2023/03/16 04:37:43;;;;;;;19.47;16.10;;;;;;;10.16;100.00;-2782.78;5050979;28;20213;-60
2023/03/16 04:40:15;;;;;;;19.83;16.43;;;;;;;10.17;100.00;-5334.13;5050637;28;20200;-59
2023/03/16 04:42:43;;;;;;;21.80;16.97;;;;;;;10.13;100.00;-6927.47;5050138;28;20190;-60
2023/03/16 04:45:11;;;;;;;17.80;15.93;;;;;;;10.12;100.00;-7883.06;5049879;28;20190;-61
2023/03/16 04:47:39;;;;;;;21.27;16.83;;;;;;;9.98;100.00;-8837.28;5051034;28;20189;-59
2023/03/16 04:50:09;;;;;;;22.03;17.47;;;;;;;9.89;100.00;-10745.69;5050944;28;20209;-59
2023/03/16 04:52:36;;;;;;;21.90;16.93;;;;;;;9.80;100.00;-11062.72;5050599;28;20225;-59
2023/03/16 04:55:03;;;;;;;21.40;16.17;;;;;;;9.74;100.00;-12015.84;5050909;28;20198;-61
2023/03/16 04:57:31;;;;;;;21.37;16.73;;;;;;;9.55;100.00;-13601.94;5050598;28;20632;-61
2023/03/16 04:59:57;;;;;;;26.23;18.53;;;;;;;9.59;100.00;-15190.59;5050654;28;20289;-59
2023/03/16 05:02:24;;;;;;;26.27;18.33;;;;;;;9.67;100.00;-16779.66;5050182;28;20194;-60
2023/03/16 05:04:51;;;;;;;26.97;18.20;;;;;;;9.51;100.00;-17410.84;5050352;28;20192;-59
2023/03/16 05:07:20;;;;;;;23.40;17.90;;;;;;;9.70;100.00;-18049.81;5050475;28;20651;-59
2023/03/16 05:09:47;;;;;;;28.00;18.27;;;;;;;9.66;100.00;-18050.69;5050260;28;20296;-60
2023/03/16 05:12:13;;;;;;;22.37;16.73;;;;;;;9.72;100.00;-18052.03;5049757;28;20213;-60
2023/03/16 05:14:40;;;;;;;26.07;17.77;;;;;;;9.55;100.00;-18048.03;5050336;28;20217;-60
2023/03/16 05:17:07;;;;;;;27.20;19.30;;;;;;;9.40;100.00;-18044.53;5090572;27;20230;-59
2023/03/16 05:19:34;;;;;;;26.37;18.07;;;;;;;9.55;100.00;-18048.16;5134602;27;20193;-60
2023/03/16 05:22:01;;;;;;;25.47;18.20;;;;;;;9.47;100.00;-18044.25;5134166;27;20185;-59
2023/03/16 05:24:30;;;;;;;20.37;16.80;;;;;;;9.43;100.00;-17726.22;5134151;27;20202;-60
2023/03/16 05:26:57;;;;;;;23.13;17.63;;;;;;;9.37;100.00;-17407.47;5116228;27;20676;-60
2023/03/16 05:29:25;;;;;;;21.37;16.67;;;;;;;9.29;100.00;-17405.63;5134095;27;20684;-60
2023/03/16 05:31:52;;;;;;;21.00;15.57;;;;;;;9.30;100.00;-17088.78;5134294;27;20552;-63
2023/03/16 05:34:19;;;;;;;26.60;16.73;;;;;;;9.24;100.00;-17087.44;5134210;27;20247;-61
2023/03/16 05:36:47;;;;;;;25.63;17.07;;;;;;;9.31;100.00;-16771.78;5134289;27;20195;-60
2023/03/16 05:39:13;;;;;;;19.40;15.93;;;;;;;9.09;100.00;-16767.03;5115561;27;20195;-60
2023/03/16 05:41:42;;;;;;;21.57;15.83;;;;;;;9.25;100.00;-16770.47;5134123;27;20557;-60
2023/03/16 05:44:09;;;;;;;17.63;15.83;;;;;;;9.20;100.00;-16452.06;5133901;27;20189;-60
2023/03/16 05:46:36;;;;;;;17.70;15.77;;;;;;;9.24;100.00;-16453.03;5133633;27;20189;-60
2023/03/16 05:49:03;;;;;;;18.37;15.70;;;;;;;9.10;100.00;-16450.09;5133297;27;20198;-61
2023/03/16 05:51:30;;;;;;;19.23;15.17;;;;;;;9.20;100.00;-16452.16;5133303;27;20704;-60
2023/03/16 05:53:57;;;;;;;17.90;16.00;;;;;;;9.22;100.00;-16452.47;5133219;27;20277;-60
2023/03/16 05:56:24;;;;;;;20.70;17.13;;;;;;;9.17;100.00;-16451.63;5133605;27;20205;-60
2023/03/16 05:58:54;;;;;;;19.07;17.03;;;;;;;9.14;100.00;-16450.88;5133330;27;20175;-60
2023/03/16 06:01:21;;;;;;;17.30;15.50;;;;;;;9.23;100.00;-16452.81;5133571;27;20592;-61
2023/03/16 06:03:50;;;;;;;20.23;15.87;;;;;;;9.10;100.00;-16450.00;5133756;27;20220;-59
2023/03/16 06:06:17;;;;;;;18.20;16.30;;;;;;;9.24;100.00;-16453.03;5133362;27;20183;-59
2023/03/16 06:08:44;;;;;;;17.90;16.07;;;;;;;9.29;100.00;-16454.00;5133394;27;20213;-59
2023/03/16 06:11:11;;;;;;;19.40;16.43;;;;;;;9.21;100.00;-16452.28;5132837;27;20189;-62
2023/03/16 06:13:38;;;;;;;21.37;15.90;;;;;;;9.32;100.00;-16454.66;5133233;27;20178;-61
2023/03/16 06:16:07;;;;;;;18.57;15.00;;;;;;;9.23;100.00;-16452.69;5128589;27;20186;-59
2023/03/16 06:18:34;;;;;;;24.53;16.43;;;;;;;9.46;100.00;-16775.13;5049334;28;20182;-60
2023/03/16 06:21:02;;;;;;;17.37;14.93;;;;;;;9.14;100.00;-16768.03;5049287;28;20559;-61
2023/03/16 06:23:29;;;;;;;20.03;15.47;;;;;;;9.52;100.00;-16776.34;5048961;28;20285;-61
2023/03/16 06:25:58;;;;;;;18.60;15.60;;;;;;;9.58;100.00;-16777.66;5049290;28;20190;-61
2023/03/16 06:28:25;;;;;;;21.60;16.13;;;;;;;9.67;100.00;-16779.53;5048571;28;20225;-61
2023/03/16 06:30:54;;;;;;;24.80;15.93;;;;;;;9.71;100.00;-16780.44;5048991;28;20189;-61
2023/03/16 06:33:22;;;;;;;21.73;15.47;;;;;;;9.78;100.00;-16464.47;5048754;28;20186;-61
2023/03/16 06:35:50;;;;;;;22.47;15.50;;;;;;;9.88;100.00;-16784.31;5048631;28;20221;-60
2023/03/16 06:38:17;;;;;;;24.50;15.77;;;;;;;9.91;100.00;-16467.28;5048782;28;20242;-60
2023/03/16 06:40:51;;;;;;;26.57;17.00;;;;;;;10.04;100.00;-16787.72;5048617;28;20181;-61
2023/03/16 06:43:17;;;;;;;26.83;16.43;;;;;;;10.01;100.00;-16469.47;5048397;28;20209;-62
2023/03/16 06:45:44;;;;;;;21.63;15.77;;;;;;;9.70;100.00;-16780.31;5048535;28;20193;-60
2023/03/16 06:48:11;;;;;;;21.93;15.67;;;;;;;9.94;100.00;-16785.63;5048502;28;20190;-60
2023/03/16 06:50:42;;;;;;;21.90;15.40;;;;;;;10.02;100.00;-16787.28;5048257;28;20216;-61
2023/03/16 06:53:10;;;;;;;17.57;15.60;;;;;;;10.03;100.00;-16787.50;5048224;28;20280;-60
2023/03/16 06:55:37;;;;;;;15.43;13.50;;;;;;;10.02;100.00;-16787.28;5048345;28;20284;-61
2023/03/16 06:58:10;;;;;;;17.13;13.70;;;;;;;9.96;100.00;-16785.97;5048407;28;20186;-61
2023/03/16 07:00:37;;;;;;;16.23;14.57;;;;;;;10.01;100.00;-16787.06;5048250;28;20287;-60
2023/03/16 07:03:04;;;;;;;17.73;14.73;;;;;;;10.01;100.00;-16787.16;5048515;28;20201;-61
2023/03/16 07:05:31;;;;;;;15.80;14.00;;;;;;;10.00;100.00;-16786.84;5048250;28;20186;-61
2023/03/16 07:08:00;;;;;;;18.57;15.97;;;;;;;10.16;100.00;-16472.59;5050665;28;20192;-61
2023/03/16 07:10:27;;;;;;;19.50;15.20;;;;;;;9.97;100.00;-16468.69;5051930;28;20286;-65
2023/03/16 07:12:55;;;;;;;13.57;12.53;;;;;;;9.87;100.00;-16466.44;5033991;28;20277;-61
2023/03/16 07:15:24;;;;;;;14.97;13.50;;;;;;;9.97;100.00;-16786.19;5051980;28;20197;-60
2023/03/16 07:17:51;;;;;;;18.60;13.03;;;;;;;10.08;100.00;-16788.59;5041915;28;20789;-61
2023/03/16 07:20:20;;;;;;;17.50;12.47;;;;;;;10.04;100.00;-16787.84;5034846;28;20253;-62
2023/03/16 07:22:47;;;;;;;14.13;11.73;;;;;;;9.90;100.00;-17102.16;5051212;28;20289;-61
2023/03/16 07:25:15;;;;;;;13.93;12.23;;;;;;;9.98;100.00;-16786.41;5045436;28;20624;-62
2023/03/16 07:27:49;;;;;;;12.23;11.10;;;;;;;9.94;100.00;-16785.50;5036720;28;20193;-60
2023/03/16 07:30:16;;;;;;;13.53;12.40;;;;;;;9.96;100.00;-16785.97;5041088;28;20256;-61
2023/03/16 07:32:43;;;;;;;14.60;13.27;;;;;;;9.83;100.00;-16783.09;5031720;28;20194;-60
2023/03/16 07:35:11;;;;;;;13.60;12.27;;;;;;;9.99;100.00;-16786.63;5031585;28;20186;-60
2023/03/16 07:37:38;;;;;;;14.87;13.17;;;;;;;10.05;100.00;-16788.06;5036199;28;20189;-61
2023/03/16 07:40:13;;;;;;;12.03;10.93;;;;;;;10.05;100.00;-16787.94;5032494;28;20197;-61
2023/03/16 07:42:41;;;;;;;13.30;11.37;;;;;;;9.98;100.00;-16468.81;5035445;28;20632;-61
2023/03/16 07:45:11;;;;;;;13.93;12.50;;;;;;;9.99;100.00;-16469.13;5049048;27;20553;-61
2023/03/16 07:47:39;;;;;;;18.30;13.63;;;;;;;9.92;100.00;-16785.19;5038349;27;20206;-60
2023/03/16 07:50:07;;;;;;;17.07;13.33;;;;;;;9.96;100.00;-16785.97;5055392;27;20252;-61
2023/03/16 07:52:37;;;;;;;15.03;13.47;;;;;;;9.92;100.00;-16785.06;5051022;28;20190;-61
2023/03/16 07:55:05;;;;;;;15.77;14.30;;;;;;;9.87;100.00;-16466.53;5051518;28;20667;-61
2023/03/16 07:57:34;;;;;;;69.13;46.73;;;;;;;9.93;100.00;-16785.28;5037289;28;20206;-60
2023/03/16 08:00:04;;;;;;;44.30;26.27;;;;;;;9.97;100.00;-16786.28;5031389;28;20186;-61
2023/03/16 08:02:31;;;;;;;31.17;20.93;;;;;;;9.81;100.00;-16465.13;5031121;28;20641;-61
2023/03/16 08:04:58;;;;;;;37.93;24.17;;;;;;;9.84;100.00;-16783.41;5030812;28;20197;-61
2023/03/16 08:07:26;;;;;;;42.20;26.17;;;;;;;9.78;100.00;-16464.47;5031106;28;20629;-60
2023/03/16 08:09:53;;;;;;;2.67;2.57;;;;;;;9.22;100.00;-15500.78;5030905;28;20220;-61
2023/03/16 08:12:21;;;;;;;3.70;3.60;;;;;;;9.12;100.00;-15498.78;5031141;28;20190;-61
2023/03/16 08:14:48;;;;;;;2.90;2.70;;;;;;;8.75;100.00;-15491.34;5030880;28;20190;-60
2023/03/16 08:17:16;;;;;;;2.10;2.03;;;;;;;8.65;100.00;-15489.53;5030522;28;20612;-61
2023/03/16 08:19:43;;;;;;;2.60;2.50;;;;;;;8.57;100.00;-15487.94;5031309;28;20186;-61
2023/03/16 08:22:11;;;;;;;2.90;2.80;;;;;;;8.49;100.00;-15803.16;5031100;28;20658;-61
2023/03/16 08:24:38;;;;;;;3.13;3.03;;;;;;;8.52;100.00;-15803.75;5030850;28;20186;-60
2023/03/16 08:27:05;;;;;;;3.50;3.40;;;;;;;8.67;100.00;-15806.97;5030725;28;20191;-61
2023/03/16 08:29:36;;;;;;;3.10;3.00;;;;;;;8.60;100.00;-15488.53;5030597;28;20209;-61
2023/03/16 08:32:05;;;;;;;3.77;3.57;;;;;;;8.69;100.00;-15173.19;5030910;28;20190;-61
2023/03/16 08:34:35;;;;;;;3.43;3.33;;;;;;;8.69;100.00;-15490.34;5031106;28;20186;-61
2023/03/16 08:37:01;;;;;;;3.60;3.40;;;;;;;8.63;100.00;-15172.00;5030742;28;20239;-62
2023/03/16 08:39:29;;;;;;;4.00;3.90;;;;;;;8.71;100.00;-15490.66;5030936;28;20239;-60
2023/03/16 08:41:56;;;;;;;4.00;3.80;;;;;;;8.70;100.00;-15490.44;5031014;28;20201;-63
2023/03/16 08:44:24;;;;;;;3.60;3.40;;;;;;;8.70;100.00;-15173.47;5140113;27;20190;-61
2023/03/16 08:46:51;;;;;;;4.37;4.17;;;;;;;8.75;100.00;-15174.25;5135404;27;20190;-61
2023/03/16 08:49:22;;;;;;;4.43;4.23;;;;;;;8.71;100.00;-14539.44;5134476;27;20194;-63
2023/03/16 08:51:54;;;;;;;4.60;3.93;;;;;;;8.68;100.00;-14856.00;5134696;27;20179;-61
2023/03/16 08:54:24;;;;;;;4.83;4.63;;;;;;;8.83;100.00;-14541.47;5134847;27;20598;-62
2023/03/16 08:56:51;;;;;;;4.40;4.20;;;;;;;8.82;100.00;-14224.16;5135129;27;20537;-62
2023/03/16 08:59:18;;;;;;;4.87;4.67;;;;;;;8.86;100.00;-14859.25;5134713;27;20565;-61
2023/03/16 09:01:45;;;;;;;3.60;3.40;;;;;;;8.77;100.00;-14223.25;5116693;27;20197;-61
2023/03/16 09:04:12;;;;;;;3.20;3.00;;;;;;;8.64;100.00;-13586.66;5135263;27;20289;-61
2023/03/16 09:06:40;;;;;;;4.53;4.33;;;;;;;8.69;100.00;-14221.91;5134496;27;20179;-62
2023/03/16 09:09:09;;;;;;;5.03;4.83;;;;;;;8.59;100.00;-14537.22;5134301;27;20199;-61
2023/03/16 09:11:36;;;;;;;4.00;3.80;;;;;;;8.32;100.00;-13898.22;5133700;27;20223;-61
2023/03/16 09:14:03;;;;;;;3.97;3.63;;;;;;;8.56;100.00;-14219.56;5134157;27;20265;-61
2023/03/16 09:16:30;;;;;;;4.70;4.40;;;;;;;8.55;100.00;-13585.03;5115942;27;20722;-61
2023/03/16 09:18:57;;;;;;;4.77;4.57;;;;;;;8.56;100.00;-14219.56;5050493;28;20208;-62
2023/03/16 09:21:24;;;;;;;5.50;5.10;;;;;;;8.61;100.00;-14220.47;5049756;28;20626;-61
2023/03/16 09:23:51;;;;;;;5.00;4.73;;;;;;;8.51;100.00;-13584.44;5050354;28;20185;-62
2023/03/16 09:26:20;;;;;;;6.00;5.80;;;;;;;8.91;100.00;-14225.69;5050277;28;20596;-61
2023/03/16 09:28:48;;;;;;;5.53;5.30;;;;;;;8.79;100.00;-13906.28;5049423;28;20189;-61
2023/03/16 09:31:17;;;;;;;6.10;5.90;;;;;;;8.89;100.00;-14542.59;5049264;28;20248;-61
2023/03/16 09:33:44;;;;;;;6.10;5.77;;;;;;;8.82;100.00;-13589.63;5050042;28;20208;-61
2023/03/16 09:36:12;;;;;;;5.73;5.53;;;;;;;8.85;100.00;-13907.34;5049383;28;20181;-62
2023/03/16 09:38:43;;;;;;;6.53;6.03;;;;;;;8.84;100.00;-14224.53;5049606;28;20709;-61
2023/03/16 09:41:24;;;;;;;4.07;3.87;;;;;;;8.70;100.00;-13904.88;5049482;28;20686;-62
2023/03/16 09:44:03;;;;;;;5.70;5.40;;;;;;;8.60;100.00;-14537.38;5049226;28;20189;-61
2023/03/16 09:46:35;;;;;;;5.17;4.97;;;;;;;8.46;100.00;-14851.69;5049085;28;20185;-61
2023/03/16 09:49:05;;;;;;;6.00;5.40;;;;;;;8.52;100.00;-15169.94;5049380;28;20564;-62
2023/03/16 09:51:43;;;;;;;5.77;5.57;;;;;;;8.69;100.00;-14856.19;5049088;28;20213;-62
2023/03/16 09:54:21;;;;;;;5.17;4.87;;;;;;;8.55;100.00;-14536.47;5049105;28;20189;-61
2023/03/16 09:56:50;;;;;;;5.77;5.47;;;;;;;8.56;100.00;-15170.72;5049421;28;20629;-64
2023/03/16 09:59:18;;;;;;;6.07;5.77;;;;;;;8.57;100.00;-15170.94;5048319;28;20273;-61
2023/03/16 10:01:58;;;;;;;5.93;5.53;;;;;;;8.45;100.00;-14851.50;5049095;28;20178;-62
2023/03/16 10:04:41;;;;;;;12.33;11.30;;;;;;;8.64;100.00;-14855.13;5049571;28;20193;-61
2023/03/16 10:07:24;;;;;;;7.27;6.77;;;;;;;8.70;100.00;-14539.25;5048933;28;20226;-63
2023/03/16 10:09:56;;;;;;;8.90;8.30;;;;;;;8.71;100.00;-14856.47;5048581;28;20216;-63
2023/03/16 10:12:32;;;;;;;7.73;7.37;;;;;;;8.62;100.00;-14220.63;5048539;28;20181;-62
2023/03/16 10:15:10;;;;;;;10.40;9.50;;;;;;;8.56;100.00;-14536.56;5049059;28;20660;-62
2023/03/16 10:17:40;;;;;;;7.67;7.27;;;;;;;8.40;100.00;-14850.66;5048624;27;20233;-62
2023/03/16 10:20:11;;;;;;;8.50;7.90;;;;;;;8.42;100.00;-14851.03;5048854;28;20197;-62
2023/03/16 10:22:45;;;;;;;6.73;6.33;;;;;;;8.54;100.00;-14536.28;5048979;28;20185;-62
2023/03/16 10:25:20;;;;;;;7.67;7.27;;;;;;;8.45;100.00;-14534.50;5048736;28;20185;-61
2023/03/16 10:27:47;;;;;;;7.87;6.87;;;;;;;8.42;100.00;-14850.94;5048716;28;20185;-61
2023/03/16 10:30:21;;;;;;;5.63;5.27;;;;;;;8.44;100.00;-14217.31;5048563;28;20216;-61
2023/03/16 10:32:49;;;;;;;6.70;6.37;;;;;;;8.45;100.00;-14851.59;5048948;28;20192;-61
2023/03/16 10:35:34;;;;;;;6.33;5.93;;;;;;;8.30;100.00;-14848.75;5048515;28;20647;-61
2023/03/16 10:38:01;;;;;;;6.63;6.20;;;;;;;8.32;100.00;-15165.94;5048804;28;20265;-62
2023/03/16 10:40:31;;;;;;;6.37;5.97;;;;;;;8.41;100.00;-14533.88;5048543;28;20620;-61
2023/03/16 10:43:07;;;;;;;7.77;7.27;;;;;;;8.37;100.00;-14216.13;5049112;28;20209;-60
2023/03/16 10:45:37;;;;;;;7.73;7.33;;;;;;;8.45;100.00;-14851.59;5049013;28;20185;-62
2023/03/16 10:48:08;;;;;;;7.33;6.87;;;;;;;8.52;100.00;-15169.84;5048608;28;20262;-62
2023/03/16 10:50:36;;;;;;;5.77;5.50;;;;;;;8.53;100.00;-14853.13;5048810;28;20209;-61
2023/03/16 10:53:03;;;;;;;6.43;6.23;;;;;;;8.49;100.00;-14535.25;5048899;28;20192;-61
2023/03/16 10:55:41;;;;;;;5.53;5.33;;;;;;;8.57;100.00;-14219.75;5048974;28;20204;-62
2023/03/16 10:58:09;;;;;;;7.43;7.03;;;;;;;8.56;100.00;-14219.56;5048457;28;20193;-61
2023/03/16 11:00:45;;;;;;;7.73;7.30;;;;;;;8.58;100.00;-14854.09;5048473;28;20178;-60
2023/03/16 11:03:24;;;;;;;8.80;8.30;;;;;;;8.54;100.00;-14219.19;5048530;28;20201;-62
2023/03/16 11:05:58;;;;;;;7.40;6.90;;;;;;;8.49;100.00;-14852.38;5030637;28;20198;-60
2023/03/16 11:08:27;;;;;;;9.70;9.00;;;;;;;8.49;100.00;-15803.16;5048106;28;20655;-61
2023/03/16 11:10:59;;;;;;;10.57;9.63;;;;;;;8.48;100.00;-16436.81;5048472;28;20205;-60
2023/03/16 11:13:33;;;;;;;11.03;10.10;;;;;;;8.38;100.00;-16434.63;5048496;28;20282;-61
2023/03/16 11:16:06;;;;;;;10.37;9.60;;;;;;;8.52;100.00;-17071.22;5048287;28;20647;-60
2023/03/16 11:18:42;;;;;;;9.47;8.97;;;;;;;8.57;100.00;-17072.34;5048634;28;20630;-60
2023/03/16 11:21:16;;;;;;;9.30;8.63;;;;;;;8.47;100.00;-16753.41;5048314;28;20185;-61